createdAt,value
2022-09-01T00:00:12.748Z,17.89
2022-09-01T00:01:12.037Z,17.87
2022-09-01T00:02:16.034Z,17.82
2022-09-01T00:03:10.990Z,17.82
2022-09-01T00:04:10.833Z,17.81
2022-09-01T00:05:11.604Z,17.78
2022-09-01T00:06:11.458Z,17.79
2022-09-01T00:07:11.062Z,17.80
2022-09-01T00:08:10.499Z,17.80
2022-09-01T00:09:10.790Z,17.78
2022-09-01T00:10:11.165Z,17.73
2022-09-01T00:11:10.512Z,17.71
2022-09-01T00:12:11.004Z,17.71
2022-09-01T00:13:10.982Z,17.69
2022-09-01T00:14:37.389Z,17.70
2022-09-01T00:15:11.353Z,17.70
2022-09-01T00:16:25.030Z,17.68
2022-09-01T00:17:10.477Z,17.68
2022-09-01T00:18:10.903Z,17.69
2022-09-01T00:19:11.228Z,17.65
2022-09-01T00:20:13.425Z,17.63
2022-09-01T00:21:11.743Z,17.60
2022-09-01T00:22:10.981Z,17.59
2022-09-01T00:23:11.298Z,17.57
2022-09-01T00:24:10.888Z,17.53
2022-09-01T00:25:11.596Z,17.51
2022-09-01T00:26:11.002Z,17.48
2022-09-01T00:27:10.911Z,17.44
2022-09-01T00:28:11.502Z,17.36
2022-09-01T00:29:10.822Z,17.32
2022-09-01T00:30:11.751Z,17.25
2022-09-01T00:31:11.395Z,17.16
2022-09-01T00:32:11.142Z,17.13
2022-09-01T00:33:10.838Z,17.12
2022-09-01T00:34:11.150Z,17.11
2022-09-01T00:35:10.855Z,17.11
2022-09-01T00:36:10.924Z,17.07
2022-09-01T00:37:11.288Z,17.04
2022-09-01T00:38:10.820Z,17.03
2022-09-01T00:39:11.164Z,17.02
2022-09-01T00:40:10.898Z,16.99
2022-09-01T00:41:11.380Z,17.00
2022-09-01T00:42:10.891Z,16.99
2022-09-01T00:43:11.326Z,16.96
2022-09-01T00:44:10.658Z,16.99
2022-09-01T00:45:13.444Z,16.99
2022-09-01T00:46:12.634Z,16.95
2022-09-01T00:47:11.234Z,16.88
2022-09-01T00:48:10.821Z,16.82
2022-09-01T00:49:10.844Z,16.82
2022-09-01T00:50:11.206Z,16.82
2022-09-01T00:51:10.382Z,16.83
2022-09-01T00:52:10.681Z,16.85
2022-09-01T00:53:11.158Z,16.83
2022-09-01T00:54:10.763Z,16.81
2022-09-01T00:55:11.168Z,16.81
2022-09-01T00:56:11.063Z,16.79
2022-09-01T00:57:10.727Z,16.80
2022-09-01T00:58:23.577Z,16.78
2022-09-01T00:59:10.884Z,16.78
2022-09-01T01:00:12.578Z,16.76
2022-09-01T01:01:11.192Z,16.67
2022-09-01T01:02:10.961Z,16.61
2022-09-01T01:03:10.636Z,16.60
2022-09-01T01:04:11.176Z,16.57
2022-09-01T01:05:15.480Z,16.52
2022-09-01T01:06:10.954Z,16.50
2022-09-01T01:07:11.260Z,16.52
2022-09-01T01:08:10.616Z,16.51
2022-09-01T01:09:11.081Z,16.52
2022-09-01T01:10:10.781Z,16.45
2022-09-01T01:11:11.128Z,16.39
2022-09-01T01:12:10.567Z,16.36
2022-09-01T01:13:10.925Z,16.36
2022-09-01T01:14:11.060Z,16.30
2022-09-01T01:15:10.747Z,16.28
2022-09-01T01:16:11.629Z,16.24
2022-09-01T01:17:11.554Z,16.27
2022-09-01T01:18:11.330Z,16.26
2022-09-01T01:19:10.660Z,16.22
2022-09-01T01:20:11.030Z,16.23
2022-09-01T01:21:10.705Z,16.24
2022-09-01T01:22:10.933Z,16.22
2022-09-01T01:23:11.166Z,16.26
2022-09-01T01:24:10.716Z,16.23
2022-09-01T01:25:11.293Z,16.18
2022-09-01T01:26:10.742Z,16.23
2022-09-01T01:27:10.879Z,16.23
2022-09-01T01:28:11.070Z,16.16
2022-09-01T01:29:10.820Z,16.10
2022-09-01T01:30:13.262Z,16.12
2022-09-01T01:31:11.157Z,16.06
2022-09-01T01:32:10.937Z,16.05
2022-09-01T01:33:12.113Z,16.06
2022-09-01T01:34:10.847Z,16.07
2022-09-01T01:35:11.243Z,16.04
2022-09-01T01:36:10.685Z,16.01
2022-09-01T01:37:11.001Z,16.02
2022-09-01T01:38:10.857Z,15.98
2022-09-01T01:39:11.352Z,15.99
2022-09-01T01:40:11.044Z,16.02
2022-09-01T01:41:10.440Z,16.02
2022-09-01T01:42:10.577Z,16.04
2022-09-01T01:43:11.105Z,16.04
2022-09-01T01:44:10.511Z,16.05
2022-09-01T01:45:11.521Z,16.04
2022-09-01T01:46:11.439Z,16.02
2022-09-01T01:47:11.142Z,16.03
2022-09-01T01:48:10.697Z,16.04
2022-09-01T01:49:11.234Z,16.06
2022-09-01T01:50:10.761Z,16.04
2022-09-01T01:51:10.968Z,16.05
2022-09-01T01:52:11.953Z,16.07
2022-09-01T01:53:15.281Z,16.06
2022-09-01T01:54:10.797Z,16.07
2022-09-01T01:55:10.970Z,16.05
2022-09-01T01:56:11.418Z,16.04
2022-09-01T01:57:10.856Z,16.04
2022-09-01T01:58:11.002Z,16.06
2022-09-01T01:59:12.230Z,16.06
2022-09-01T02:00:13.696Z,16.05
2022-09-01T02:01:11.042Z,16.03
2022-09-01T02:02:10.692Z,16.04
2022-09-01T02:03:11.134Z,16.05
2022-09-01T02:04:10.726Z,16.06
2022-09-01T02:05:11.658Z,16.06
2022-09-01T02:06:10.953Z,16.05
2022-09-01T02:07:11.250Z,16.03
2022-09-01T02:08:10.620Z,16.02
2022-09-01T02:09:10.889Z,16.01
2022-09-01T02:10:11.078Z,16.01
2022-09-01T02:11:10.451Z,16.02
2022-09-01T02:12:10.639Z,15.97
2022-09-01T02:13:10.757Z,15.93
2022-09-01T02:14:10.880Z,15.90
2022-09-01T02:15:11.536Z,15.90
2022-09-01T02:16:10.744Z,15.89
2022-09-01T02:17:15.911Z,15.89
2022-09-01T02:18:11.038Z,15.88
2022-09-01T02:19:10.396Z,15.85
2022-09-01T02:20:10.539Z,15.79
2022-09-01T02:21:15.185Z,15.71
2022-09-01T02:22:10.882Z,15.74
2022-09-01T02:23:11.535Z,15.73
2022-09-01T02:24:11.061Z,15.68
2022-09-01T02:25:10.704Z,15.67
2022-09-01T02:27:11.048Z,15.60
2022-09-01T02:28:10.600Z,15.52
2022-09-01T02:29:10.891Z,15.51
2022-09-01T02:30:11.522Z,15.51
2022-09-01T02:31:11.109Z,15.46
2022-09-01T02:32:10.885Z,15.46
2022-09-01T02:33:11.142Z,15.46
2022-09-01T02:34:10.965Z,15.47
2022-09-01T02:35:11.297Z,15.44
2022-09-01T02:36:10.900Z,15.39
2022-09-01T02:37:10.785Z,15.31
2022-09-01T02:38:11.027Z,15.33
2022-09-01T02:39:11.559Z,15.41
2022-09-01T02:40:10.653Z,15.48
2022-09-01T02:41:11.086Z,15.53
2022-09-01T02:42:10.822Z,15.55
2022-09-01T02:43:11.218Z,15.58
2022-09-01T02:44:10.635Z,15.58
2022-09-01T02:45:11.030Z,15.56
2022-09-01T02:46:11.077Z,15.54
2022-09-01T02:47:10.670Z,15.53
2022-09-01T02:48:10.879Z,15.53
2022-09-01T02:49:11.305Z,15.54
2022-09-01T02:50:10.958Z,15.52
2022-09-01T02:51:11.089Z,15.53
2022-09-01T02:52:10.365Z,15.51
2022-09-01T02:53:10.965Z,15.49
2022-09-01T02:54:11.141Z,15.46
2022-09-01T02:55:10.902Z,15.44
2022-09-01T02:56:11.054Z,15.42
2022-09-01T02:57:10.528Z,15.40
2022-09-01T02:58:10.777Z,15.38
2022-09-01T02:59:10.536Z,15.35
2022-09-01T03:00:11.795Z,15.31
2022-09-01T03:01:10.618Z,15.29
2022-09-01T03:02:10.980Z,15.29
2022-09-01T03:03:11.216Z,15.27
2022-09-01T03:04:10.688Z,15.24
2022-09-01T03:05:11.592Z,15.25
2022-09-01T03:06:11.110Z,15.26
2022-09-01T03:07:10.484Z,15.25
2022-09-01T03:08:10.649Z,15.25
2022-09-01T03:09:11.212Z,15.25
2022-09-01T03:10:10.973Z,15.26
2022-09-01T03:11:16.333Z,15.22
2022-09-01T03:12:10.644Z,15.18
2022-09-01T03:13:10.757Z,15.18
2022-09-01T03:14:10.837Z,15.17
2022-09-01T03:15:16.792Z,15.17
2022-09-01T03:16:11.277Z,15.16
2022-09-01T03:17:10.756Z,15.14
2022-09-01T03:18:10.857Z,15.13
2022-09-01T03:19:10.821Z,15.10
2022-09-01T03:20:10.757Z,15.08
2022-09-01T03:21:10.938Z,15.09
2022-09-01T03:22:11.180Z,15.06
2022-09-01T03:23:10.451Z,15.04
2022-09-01T03:24:10.982Z,15.03
2022-09-01T03:25:10.826Z,15.04
2022-09-01T03:26:10.907Z,15.04
2022-09-01T03:27:11.140Z,15.02
2022-09-01T03:28:10.353Z,14.99
2022-09-01T03:29:10.664Z,15.01
2022-09-01T03:30:11.316Z,15.00
2022-09-01T03:31:10.711Z,14.96
2022-09-01T03:32:11.357Z,14.96
2022-09-01T03:33:10.926Z,14.97
2022-09-01T03:34:11.345Z,14.98
2022-09-01T03:35:10.853Z,14.99
2022-09-01T03:37:11.226Z,14.97
2022-09-01T03:38:11.031Z,14.93
2022-09-01T03:39:16.359Z,14.89
2022-09-01T03:40:11.111Z,14.89
2022-09-01T03:41:10.411Z,14.88
2022-09-01T03:42:10.975Z,14.90
2022-09-01T03:43:11.389Z,14.90
2022-09-01T03:44:10.741Z,14.86
2022-09-01T03:45:11.817Z,14.86
2022-09-01T03:46:12.069Z,14.84
2022-09-01T03:47:10.722Z,14.81
2022-09-01T03:48:10.858Z,14.79
2022-09-01T03:49:11.227Z,14.76
2022-09-01T03:50:10.717Z,14.75
2022-09-01T03:51:11.422Z,14.77
2022-09-01T03:52:10.937Z,14.73
2022-09-01T03:53:11.385Z,14.72
2022-09-01T03:54:10.760Z,14.74
2022-09-01T03:55:12.777Z,14.70
2022-09-01T03:56:11.020Z,14.69
2022-09-01T03:57:10.630Z,14.70
2022-09-01T03:58:13.756Z,14.67
2022-09-01T03:59:11.487Z,14.67
2022-09-01T04:00:12.665Z,14.65
2022-09-01T04:01:16.234Z,14.64
2022-09-01T04:02:11.188Z,14.63
2022-09-01T04:03:10.597Z,14.60
2022-09-01T04:04:11.103Z,14.58
2022-09-01T04:05:12.450Z,14.56
2022-09-01T04:06:10.930Z,14.48
2022-09-01T04:07:11.118Z,14.46
2022-09-01T04:08:10.529Z,14.42
2022-09-01T04:09:10.927Z,14.42
2022-09-01T04:10:10.801Z,14.39
2022-09-01T04:11:10.573Z,14.39
2022-09-01T04:12:10.731Z,14.40
2022-09-01T04:13:11.104Z,14.42
2022-09-01T04:14:10.547Z,14.43
2022-09-01T04:15:11.332Z,14.43
2022-09-01T04:16:11.038Z,14.45
2022-09-01T04:17:11.018Z,14.45
2022-09-01T04:18:10.620Z,14.46
2022-09-01T04:19:10.506Z,14.47
2022-09-01T04:20:10.992Z,14.49
2022-09-01T04:21:10.892Z,14.54
2022-09-01T04:22:11.266Z,14.56
2022-09-01T04:23:10.647Z,14.56
2022-09-01T04:24:11.062Z,14.55
2022-09-01T04:25:10.780Z,14.55
2022-09-01T04:26:11.132Z,14.56
2022-09-01T04:27:10.611Z,14.56
2022-09-01T04:28:10.937Z,14.60
2022-09-01T04:29:11.164Z,14.59
2022-09-01T04:30:10.940Z,14.61
2022-09-01T04:31:11.649Z,14.63
2022-09-01T04:32:11.481Z,14.64
2022-09-01T04:33:11.012Z,14.64
2022-09-01T04:34:10.633Z,14.65
2022-09-01T04:35:11.380Z,14.68
2022-09-01T04:36:10.847Z,14.69
2022-09-01T04:37:11.182Z,14.70
2022-09-01T04:38:10.579Z,14.66
2022-09-01T04:39:12.995Z,14.64
2022-09-01T04:40:10.837Z,14.63
2022-09-01T04:41:11.558Z,14.62
2022-09-01T04:42:10.974Z,14.59
2022-09-01T04:43:11.389Z,14.52
2022-09-01T04:44:10.784Z,14.49
2022-09-01T04:45:19.973Z,14.48
2022-09-01T04:46:11.166Z,14.47
2022-09-01T04:47:10.830Z,14.45
2022-09-01T04:48:11.045Z,14.43
2022-09-01T04:49:16.846Z,14.42
2022-09-01T04:50:11.105Z,14.43
2022-09-01T04:51:10.495Z,14.41
2022-09-01T04:52:10.829Z,14.39
2022-09-01T04:53:10.966Z,14.36
2022-09-01T04:54:11.232Z,14.37
2022-09-01T04:55:10.481Z,14.35
2022-09-01T04:56:10.847Z,14.31
2022-09-01T04:57:11.432Z,14.27
2022-09-01T04:58:13.857Z,14.25
2022-09-01T04:59:11.266Z,14.26
2022-09-01T05:00:11.760Z,14.26
2022-09-01T05:01:11.318Z,14.20
2022-09-01T05:02:11.117Z,14.20
2022-09-01T05:03:10.795Z,14.18
2022-09-01T05:04:11.298Z,14.14
2022-09-01T05:05:11.036Z,14.16
2022-09-01T05:06:10.585Z,14.14
2022-09-01T05:07:11.445Z,14.13
2022-09-01T05:08:10.893Z,14.11
2022-09-01T05:09:11.038Z,14.11
2022-09-01T05:10:11.057Z,14.14
2022-09-01T05:11:10.759Z,14.16
2022-09-01T05:12:12.373Z,14.16
2022-09-01T05:13:10.698Z,14.17
2022-09-01T05:14:11.214Z,14.16
2022-09-01T05:15:11.315Z,14.15
2022-09-01T05:16:10.992Z,14.13
2022-09-01T05:17:11.075Z,14.12
2022-09-01T05:18:10.916Z,14.13
2022-09-01T05:19:11.391Z,14.13
2022-09-01T05:20:10.624Z,14.13
2022-09-01T05:21:10.958Z,14.10
2022-09-01T05:22:11.418Z,14.11
2022-09-01T05:23:10.885Z,14.12
2022-09-01T05:24:11.395Z,14.13
2022-09-01T05:25:11.091Z,14.12
2022-09-01T05:26:10.749Z,14.12
2022-09-01T05:27:11.104Z,14.11
2022-09-01T05:28:10.632Z,14.10
2022-09-01T05:29:11.018Z,14.09
2022-09-01T05:30:11.037Z,14.10
2022-09-01T05:31:10.894Z,14.07
2022-09-01T05:32:11.578Z,14.05
2022-09-01T05:33:11.048Z,14.05
2022-09-01T05:34:10.866Z,14.03
2022-09-01T05:35:11.003Z,14.04
2022-09-01T05:36:11.044Z,14.04
2022-09-01T05:37:10.854Z,14.06
2022-09-01T05:38:11.637Z,14.06
2022-09-01T05:39:11.081Z,14.09
2022-09-01T05:40:12.491Z,14.10
2022-09-01T05:41:10.959Z,14.14
2022-09-01T05:42:11.330Z,14.16
2022-09-01T05:43:11.041Z,14.17
2022-09-01T05:44:10.782Z,14.18
2022-09-01T05:45:11.569Z,14.19
2022-09-01T05:46:11.097Z,14.18
2022-09-01T05:47:11.052Z,14.18
2022-09-01T05:48:10.733Z,14.23
2022-09-01T05:49:10.952Z,14.28
2022-09-01T05:50:17.711Z,14.31
2022-09-01T05:51:44.507Z,14.38
2022-09-01T05:52:11.484Z,14.38
2022-09-01T05:53:16.336Z,14.41
2022-09-01T05:54:11.320Z,14.61
2022-09-01T05:55:11.297Z,14.76
2022-09-01T05:56:10.645Z,14.89
2022-09-01T05:57:36.926Z,14.98
2022-09-01T05:58:11.222Z,14.98
2022-09-01T05:59:28.115Z,14.94
2022-09-01T06:00:11.969Z,14.94
2022-09-01T06:01:10.935Z,14.88
2022-09-01T06:02:12.618Z,14.99
2022-09-01T06:03:11.932Z,12
2022-09-01T06:04:11.000Z,12
2022-09-01T06:05:11.153Z,15.35
2022-09-01T06:06:10.902Z,15.39
2022-09-01T06:07:16.355Z,15.47
2022-09-01T06:08:11.997Z,15.75
2022-09-01T06:09:10.864Z,15.80
2022-09-01T06:10:11.351Z,15.74
2022-09-01T07:45:32.049Z,17.64
2022-09-01T07:46:40.662Z,17.56
2022-09-01T07:47:56.186Z,17.67
2022-09-01T07:48:10.799Z,17.67
2022-09-01T07:50:11.440Z,18.02
2022-09-01T07:51:34.638Z,18.24
2022-09-01T07:51:40.029Z,18.46
2022-09-01T07:52:12.810Z,18.46
2022-09-01T07:53:11.643Z,18.51
2022-09-01T07:54:11.568Z,18.59
2022-09-01T07:55:11.098Z,18.68
2022-09-01T07:56:10.428Z,18.81
2022-09-01T07:57:10.720Z,18.91
2022-09-01T07:58:11.090Z,18.96
2022-09-01T07:59:14.591Z,19.03
2022-09-01T08:00:12.503Z,18.99
2022-09-01T08:01:11.362Z,19.07
2022-09-01T08:02:11.395Z,19.47
2022-09-01T08:03:33.174Z,19.20
2022-09-01T08:04:10.659Z,19.29
2022-09-01T08:05:11.228Z,19.23
2022-09-01T08:06:11.357Z,19.25
2022-09-01T08:08:26.363Z,19.32
2022-09-01T08:09:37.665Z,19.51
2022-09-01T08:10:11.349Z,19.51
2022-09-01T08:11:10.622Z,19.56
2022-09-01T08:12:11.037Z,19.56
2022-09-01T08:13:15.414Z,19.48
2022-09-01T08:14:11.401Z,19.29
2022-09-01T08:16:17.089Z,19.01
2022-09-01T08:17:50.812Z,18.87
2022-09-01T08:18:14.200Z,18.87
2022-09-01T08:19:19.985Z,18.94
2022-09-01T08:20:14.050Z,18.94
2022-09-01T08:21:10.776Z,18.96
2022-09-01T08:22:11.301Z,18.98
2022-09-01T08:23:10.818Z,18.96
2022-09-01T08:24:11.115Z,19.00
2022-09-01T08:25:10.887Z,19.04
2022-09-01T08:26:11.254Z,19.07
2022-09-01T08:27:10.727Z,19.11
2022-09-01T08:28:11.298Z,19.19
2022-09-01T08:29:10.716Z,19.19
2022-09-01T08:30:11.873Z,19.16
2022-09-01T08:31:14.862Z,19.20
2022-09-01T08:32:11.597Z,19.21
2022-09-01T08:33:14.594Z,19.22
2022-09-01T08:34:10.830Z,19.26
2022-09-01T08:35:11.554Z,19.27
2022-09-01T08:36:11.495Z,19.30
2022-09-01T08:37:11.125Z,19.35
2022-09-01T08:38:10.636Z,19.37
2022-09-01T08:39:11.261Z,19.38
2022-09-01T08:40:11.251Z,19.41
2022-09-01T08:41:10.719Z,19.47
2022-09-01T08:42:12.427Z,19.42
2022-09-01T08:43:16.860Z,19.45
2022-09-01T08:44:11.407Z,19.45
2022-09-01T08:45:11.024Z,19.42
2022-09-01T08:46:10.665Z,19.46
2022-09-01T08:47:17.472Z,19.51
2022-09-01T08:49:27.556Z,19.58
2022-09-01T08:49:42.132Z,19.58
2022-09-01T08:50:11.576Z,19.58
2022-09-01T08:51:20.866Z,19.65
2022-09-01T08:52:11.101Z,19.65
2022-09-01T08:53:13.310Z,19.63
2022-09-01T08:54:10.561Z,19.57
2022-09-01T08:55:10.880Z,19.59
2022-09-01T08:56:11.454Z,19.65
2022-09-01T08:57:11.041Z,19.63
2022-09-01T08:58:10.609Z,19.65
2022-09-01T08:59:11.063Z,19.70
2022-09-01T09:00:11.555Z,19.73
2022-09-01T09:01:10.832Z,19.70
2022-09-01T09:02:11.603Z,19.72
2022-09-01T09:03:12.403Z,19.73
2022-09-01T09:04:10.681Z,19.73
2022-09-01T09:05:19.686Z,19.80
2022-09-01T09:06:11.157Z,19.80
2022-09-01T09:07:10.787Z,19.83
2022-09-01T09:08:11.658Z,19.88
2022-09-01T09:09:11.073Z,19.89
2022-09-01T09:10:10.813Z,19.97
2022-09-01T09:11:11.262Z,20.09
2022-09-01T09:12:12.422Z,20.17
2022-09-01T09:13:10.651Z,20.16
2022-09-01T09:14:11.283Z,20.17
2022-09-01T09:15:11.025Z,20.17
2022-09-01T09:16:11.890Z,20.22
2022-09-01T09:17:11.555Z,20.21
2022-09-01T09:18:40.482Z,20.17
2022-09-01T09:19:11.056Z,20.17
2022-09-01T09:20:10.632Z,20.19
2022-09-01T09:21:10.740Z,20.19
2022-09-01T09:22:11.328Z,20.19
2022-09-01T09:23:10.930Z,20.21
2022-09-01T09:24:11.512Z,20.27
2022-09-01T09:25:11.879Z,20.37
2022-09-01T09:26:16.744Z,20.36
2022-09-01T09:27:16.390Z,20.38
2022-09-01T09:28:12.774Z,20.40
2022-09-01T09:29:11.045Z,20.43
2022-09-01T09:30:15.176Z,20.47
2022-09-01T09:31:11.785Z,20.48
2022-09-01T09:32:39.772Z,20.56
2022-09-01T09:33:57.777Z,20.62
2022-09-01T09:34:11.153Z,20.62
2022-09-01T09:35:10.806Z,20.62
2022-09-01T09:36:11.349Z,20.61
2022-09-01T09:37:10.645Z,20.58
2022-09-01T09:38:11.597Z,20.60
2022-09-01T09:39:11.253Z,20.59
2022-09-01T09:40:13.801Z,20.54
2022-09-01T09:41:25.722Z,20.59
2022-09-01T09:42:10.786Z,20.59
2022-09-01T09:43:11.135Z,20.68
2022-09-01T09:44:14.779Z,20.78
2022-09-01T09:45:11.699Z,20.85
2022-09-01T09:46:28.063Z,20.92
2022-09-01T09:47:43.233Z,20.83
2022-09-01T09:48:14.791Z,20.83
2022-09-01T09:49:10.861Z,20.83
2022-09-01T09:50:11.218Z,20.90
2022-09-01T09:51:13.994Z,20.96
2022-09-01T09:52:10.723Z,21.02
2022-09-01T09:53:11.578Z,21.19
2022-09-01T09:54:10.999Z,21.22
2022-09-01T09:55:10.487Z,21.20
2022-09-01T09:56:10.788Z,21.22
2022-09-01T09:57:11.339Z,21.28
2022-09-01T09:58:25.034Z,21.31
2022-09-01T09:59:10.567Z,21.31
2022-09-01T10:00:29.237Z,21.40
2022-09-01T10:01:11.147Z,21.40
2022-09-01T10:02:11.118Z,21.37
2022-09-01T10:03:12.613Z,21.37
2022-09-01T10:04:11.902Z,21.40
2022-09-01T10:05:11.435Z,21.36
2022-09-01T10:06:11.313Z,21.43
2022-09-01T10:07:11.515Z,21.44
2022-09-01T10:08:11.102Z,21.46
2022-09-01T10:09:12.816Z,21.58
2022-09-01T10:10:11.581Z,21.74
2022-09-01T10:11:11.745Z,21.69
2022-09-01T10:12:11.453Z,21.71
2022-09-01T10:13:11.386Z,21.79
2022-09-01T10:14:13.621Z,21.73
2022-09-01T10:15:17.682Z,21.71
2022-09-01T10:16:13.077Z,21.67
2022-09-01T10:17:11.299Z,21.62
2022-09-01T10:18:29.407Z,21.54
2022-09-01T10:19:19.877Z,21.57
2022-09-01T10:20:15.060Z,21.57
2022-09-01T10:21:10.642Z,21.56
2022-09-01T10:22:11.427Z,21.65
2022-09-01T10:23:19.248Z,21.66
2022-09-01T10:24:27.024Z,21.73
2022-09-01T10:25:14.358Z,21.73
2022-09-01T10:26:14.497Z,21.82
2022-09-01T10:27:18.229Z,21.86
2022-09-01T10:28:11.564Z,21.85
2022-09-01T10:29:15.930Z,21.87
2022-09-01T10:30:22.895Z,21.81
2022-09-01T10:31:13.240Z,21.81
2022-09-01T10:32:38.270Z,21.82
2022-09-01T10:33:22.475Z,21.85
2022-09-01T10:34:11.180Z,21.85
2022-09-01T10:35:11.629Z,21.89
2022-09-01T10:36:11.756Z,21.98
2022-09-01T10:37:16.016Z,22.06
2022-09-01T10:38:12.247Z,22.02
2022-09-01T10:39:12.777Z,21.96
2022-09-01T10:40:11.427Z,22
2022-09-01T10:41:15.013Z,21.91
2022-09-01T10:42:13.143Z,21.85
2022-09-01T10:43:16.342Z,21.86
2022-09-01T10:44:11.785Z,21.80
2022-09-01T10:45:11.869Z,21.80
2022-09-01T10:47:17.398Z,21.87
2022-09-01T10:48:18.218Z,21.93
2022-09-01T10:49:12.388Z,22.04
2022-09-01T10:50:13.925Z,22.09
2022-09-01T10:51:10.996Z,22.21
2022-09-01T10:52:32.857Z,22.04
2022-09-01T10:53:11.520Z,22.04
2022-09-01T10:54:11.638Z,22.05
2022-09-01T10:55:11.478Z,22.05
2022-09-01T10:56:35.503Z,22.11
2022-09-01T10:57:12.832Z,22.11
2022-09-01T10:59:40.096Z,22.14
2022-09-01T10:59:44.422Z,22.14
2022-09-01T11:00:39.375Z,22.19
2022-09-01T11:01:19.094Z,22.19
2022-09-01T11:02:35.971Z,22.24
2022-09-01T11:03:41.081Z,22.31
2022-09-01T11:04:11.377Z,22.31
2022-09-01T11:05:11.831Z,22.23
2022-09-01T11:06:17.053Z,22.17
2022-09-01T11:07:50.427Z,22.33
2022-09-01T11:09:10.763Z,22.38
2022-09-01T11:10:31.652Z,22.40
2022-09-01T11:11:13.085Z,22.44
2022-09-01T11:12:11.001Z,22.44
2022-09-01T11:13:11.235Z,22.42
2022-09-01T11:14:10.806Z,22.43
2022-09-01T11:15:12.297Z,22.45
2022-09-01T11:16:10.954Z,22.50
2022-09-01T11:17:11.979Z,22.58
2022-09-01T11:18:11.273Z,22.57
2022-09-01T11:19:17.492Z,22.51
2022-09-01T11:20:11.602Z,22.47
2022-09-01T11:21:12.810Z,22.59
2022-09-01T11:22:13.052Z,22.69
2022-09-01T11:23:12.741Z,22.65
2022-09-01T11:24:12.486Z,22.63
2022-09-01T11:25:16.417Z,22.63
2022-09-01T11:26:24.813Z,22.68
2022-09-01T11:27:11.502Z,22.68
2022-09-01T11:28:11.711Z,22.84
2022-09-01T11:29:10.965Z,23.04
2022-09-01T11:30:10.976Z,22.97
2022-09-01T11:31:10.956Z,22.93
2022-09-01T11:32:12.172Z,23.01
2022-09-01T11:33:10.685Z,23.10
2022-09-01T11:34:10.950Z,23.14
2022-09-01T11:35:11.518Z,23.11
2022-09-01T11:36:10.694Z,23.10
2022-09-01T11:37:10.668Z,23.12
2022-09-01T11:38:10.464Z,23.20
2022-09-01T11:39:11.466Z,23.18
2022-09-01T11:40:11.628Z,23.18
2022-09-01T11:41:11.197Z,23.18
2022-09-01T11:42:10.860Z,23.19
2022-09-01T11:43:16.687Z,23.26
2022-09-01T11:44:11.637Z,23.23
2022-09-01T11:45:11.833Z,23.22
2022-09-01T11:46:11.732Z,23.21
2022-09-01T11:47:17.698Z,23.29
2022-09-01T11:48:11.389Z,23.29
2022-09-01T11:49:10.852Z,23.37
2022-09-01T11:50:11.589Z,23.40
2022-09-01T11:51:18.207Z,23.40
2022-09-01T11:52:10.920Z,23.36
2022-09-01T11:53:11.211Z,23.40
2022-09-01T11:54:10.698Z,23.50
2022-09-01T11:55:11.579Z,23.56
2022-09-01T11:56:11.492Z,23.58
2022-09-01T11:57:11.184Z,23.66
2022-09-01T11:58:13.468Z,23.62
2022-09-01T11:59:11.210Z,23.67
2022-09-01T12:00:11.718Z,23.62
2022-09-01T12:01:15.969Z,23.59
2022-09-01T12:02:11.713Z,23.61
2022-09-01T12:03:11.497Z,23.64
2022-09-01T12:04:11.212Z,23.67
2022-09-01T12:05:10.832Z,23.58
2022-09-01T12:06:11.393Z,23.57
2022-09-01T12:07:15.142Z,23.60
2022-09-01T12:08:11.111Z,23.64
2022-09-01T12:09:10.883Z,23.67
2022-09-01T12:10:11.553Z,23.66
2022-09-01T12:11:11.403Z,23.65
2022-09-01T12:12:11.334Z,23.65
2022-09-01T12:13:11.031Z,23.77
2022-09-01T12:14:15.102Z,23.82
2022-09-01T12:15:11.278Z,23.88
2022-09-01T12:16:22.280Z,23.91
2022-09-01T12:17:11.361Z,23.91
2022-09-01T12:18:10.910Z,23.99
2022-09-01T12:19:11.220Z,23.99
2022-09-01T12:20:10.829Z,23.92
2022-09-01T12:21:25.557Z,23.89
2022-09-01T12:22:11.173Z,23.89
2022-09-01T12:23:10.784Z,23.83
2022-09-01T12:24:11.725Z,23.83
2022-09-01T12:25:11.299Z,23.84
2022-09-01T12:26:10.680Z,23.77
2022-09-01T12:27:11.220Z,23.74
2022-09-01T12:28:14.920Z,23.73
2022-09-01T12:29:11.590Z,23.72
2022-09-01T12:30:11.235Z,23.73
2022-09-01T12:31:11.383Z,23.80
2022-09-01T12:32:11.261Z,23.84
2022-09-01T12:33:28.216Z,23.83
2022-09-01T12:34:10.736Z,23.83
2022-09-01T12:35:15.341Z,23.81
2022-09-01T12:36:11.319Z,23.79
2022-09-01T12:37:10.735Z,23.78
2022-09-01T12:38:13.261Z,23.85
2022-09-01T12:39:11.273Z,23.85
2022-09-01T12:40:11.459Z,23.80
2022-09-01T12:41:12.148Z,23.79
2022-09-01T12:42:10.810Z,23.79
2022-09-01T12:43:11.431Z,23.83
2022-09-01T12:44:10.973Z,23.79
2022-09-01T12:45:12.711Z,23.74
2022-09-01T12:46:17.545Z,23.73
2022-09-01T12:47:11.273Z,23.73
2022-09-01T12:48:10.616Z,23.71
2022-09-01T12:49:12.642Z,23.70
2022-09-01T12:50:11.407Z,23.80
2022-09-01T12:51:13.068Z,23.89
2022-09-01T12:52:10.465Z,23.87
2022-09-01T12:53:12.104Z,23.90
2022-09-01T12:54:13.121Z,23.91
2022-09-01T12:55:10.940Z,23.88
2022-09-01T12:56:11.802Z,23.86
2022-09-01T12:57:11.270Z,23.90
2022-09-01T12:58:10.743Z,24.02
2022-09-01T12:59:23.288Z,24.01
2022-09-01T13:00:12.259Z,24.01
2022-09-01T13:01:20.338Z,23.91
2022-09-01T13:02:12.219Z,23.91
2022-09-01T13:03:15.388Z,23.90
2022-09-01T13:04:11.157Z,23.90
2022-09-01T13:05:10.791Z,23.88
2022-09-01T13:06:12.681Z,23.87
2022-09-01T13:07:12.386Z,23.85
2022-09-01T13:08:11.182Z,23.86
2022-09-01T13:09:10.616Z,23.89
2022-09-01T13:10:10.975Z,23.95
2022-09-01T13:11:11.701Z,24.01
2022-09-01T13:12:12.119Z,24.08
2022-09-01T13:13:10.326Z,24.05
2022-09-01T13:14:10.771Z,24.00
2022-09-01T13:16:11.553Z,24.07
2022-09-01T13:17:17.595Z,24.17
2022-09-01T13:18:11.690Z,24.29
2022-09-01T13:19:21.856Z,24.35
2022-09-01T13:20:10.906Z,24.38
2022-09-01T13:21:11.515Z,24.31
2022-09-01T13:22:10.969Z,24.28
2022-09-01T13:23:10.683Z,24.33
2022-09-01T13:24:11.049Z,24.34
2022-09-01T13:25:10.855Z,24.35
2022-09-01T13:26:11.623Z,24.40
2022-09-01T13:27:26.656Z,24.39
2022-09-01T13:28:11.561Z,24.39
2022-09-01T13:29:11.077Z,24.41
2022-09-01T13:30:11.053Z,24.44
2022-09-01T13:31:36.648Z,24.52
2022-09-01T13:32:25.970Z,24.54
2022-09-01T13:33:27.355Z,24.71
2022-09-01T13:34:27.520Z,24.71
2022-09-01T13:35:11.374Z,24.71
2022-09-01T13:36:43.714Z,24.60
2022-09-01T13:37:11.477Z,24.60
2022-09-01T13:38:11.150Z,24.60
2022-09-01T13:39:12.010Z,24.64
2022-09-01T13:40:11.630Z,24.64
2022-09-01T13:41:11.683Z,24.74
2022-09-01T13:42:11.353Z,24.68
2022-09-01T13:43:10.982Z,24.69
2022-09-01T13:44:11.704Z,24.64
2022-09-01T13:45:11.625Z,24.65
2022-09-01T13:46:12.232Z,24.70
2022-09-01T13:47:34.154Z,24.63
2022-09-01T13:50:05.874Z,24.58
2022-09-01T13:50:17.291Z,24.58
2022-09-01T13:51:22.211Z,24.57
2022-09-01T13:52:10.979Z,24.57
2022-09-01T13:53:11.708Z,24.60
2022-09-01T13:54:11.508Z,24.64
2022-09-01T13:55:11.328Z,24.71
2022-09-01T13:56:11.387Z,24.64
2022-09-01T13:57:11.302Z,24.60
2022-09-01T13:58:11.111Z,24.57
2022-09-01T13:59:10.792Z,24.55
2022-09-01T14:00:13.332Z,24.55
2022-09-01T14:01:12.475Z,24.52
2022-09-01T14:02:11.656Z,24.56
2022-09-01T14:03:11.585Z,24.54
2022-09-01T14:04:11.688Z,24.57
2022-09-01T14:05:11.495Z,24.55
2022-09-01T14:06:11.203Z,24.60
2022-09-01T14:07:11.050Z,24.55
2022-09-01T14:08:10.824Z,24.51
2022-09-01T14:09:15.606Z,24.54
2022-09-01T14:10:11.286Z,24.64
2022-09-01T14:11:10.918Z,24.62
2022-09-01T14:12:11.771Z,24.59
2022-09-01T14:13:11.362Z,24.59
2022-09-01T14:14:11.114Z,24.59
2022-09-01T14:15:23.735Z,24.60
2022-09-01T14:16:11.136Z,24.60
2022-09-01T14:17:11.078Z,24.63
2022-09-01T14:18:10.563Z,24.67
2022-09-01T14:19:11.262Z,24.70
2022-09-01T14:20:11.289Z,24.70
2022-09-01T14:21:11.081Z,24.68
2022-09-01T14:22:15.811Z,24.66
2022-09-01T14:23:11.588Z,24.63
2022-09-01T14:24:11.220Z,24.66
2022-09-01T14:25:10.990Z,24.67
2022-09-01T14:26:11.224Z,24.65
2022-09-01T14:27:11.034Z,24.65
2022-09-01T14:28:20.474Z,24.67
2022-09-01T14:29:11.842Z,24.67
2022-09-01T14:30:12.324Z,24.66
2022-09-01T14:31:11.259Z,24.67
2022-09-01T14:32:11.840Z,24.67
2022-09-01T14:33:12.088Z,24.64
2022-09-01T14:34:11.022Z,24.64